Latest Coastal Weather Observations for Sydney Harbour

IDN60701

Issued at 2:25 pm EST Thursday 2 October 2014 (issued every 10 minutes, with the page automatically refreshed every 10 minutes)

About coastal observations | Map of coastal stations | Coastal observations for NSW | Marine services | Other Formats
Station Details ID: 066196 Name: WEDDING CAKE WEST Lat: -33.84 Lon: 151.26 Height: 6.0 m
Data from the previous 72 hours. | See also: Recent months for locations in New South Wales
Date/Time
EST
Temp

°C
Wind Pressure Rain
since 9am
mm
Weather Cloud Vis
km
Sea
Height
m
Swell
Dir
 
Speed
knots
Gust
knots
hPa Trend Height
m
Period
s
Dir
02/11:00am 17.9 NNW 9 12 - - - - - - - - - -
02/10:30am 17.7 NNW 9 15 - - - - - - - - - -
02/10:00am 17.3 W 12 16 - - - - - - - - - -
02/09:30am 16.8 NW 12 17 - - - - - - - - - -
02/09:00am 15.6 SW 6 8 - - - - - - - - - -
02/08:30am 14.4 WSW 9 11 - - - - - - - - - -
02/08:00am 13.7 W 7 9 - - - - - - - - - -
02/07:30am 13.2 W 7 9 - - - - - - - - - -
02/07:00am 12.5 W 11 13 - - - - - - - - - -
02/06:30am 11.9 W 8 10 - - - - - - - - - -
02/06:00am 11.9 W 7 11 - - - - - - - - - -
02/05:30am 11.6 W 7 9 - - - - - - - - - -
02/05:00am 11.7 W 9 11 - - - - - - - - - -
02/04:30am 12.1 W 9 11 - - - - - - - - - -
02/04:00am 12.3 W 12 14 - - - - - - - - - -
02/03:30am 12.4 W 11 13 - - - - - - - - - -
02/03:00am 12.6 W 12 14 - - - - - - - - - -
02/02:30am 12.9 W 11 13 - - - - - - - - - -
02/02:00am 13.1 W 11 13 - - - - - - - - - -
02/01:30am 13.3 W 10 13 - - - - - - - - - -
02/01:00am 13.8 W 9 11 - - - - - - - - - -
02/12:30am 13.7 W 9 11 - - - - - - - - - -
02/12:00am 14.6 W 11 13 - - - - - - - - - -
 
Date/Time
EST
Temp

°C
Wind Pressure Rain
since 9am
mm
Weather Cloud Vis
km
Sea
Height
m
Swell
Dir
 
Speed
knots
Gust
knots
hPa Trend Height
m
Period
s
Dir
01/11:30pm 14.7 W 9 11 - - - - - - - - - -
01/11:00pm 15.8 SW 8 10 - - - - - - - - - -
01/10:30pm 16.1 S 9 11 - - - - - - - - - -
01/10:00pm 16.2 SSW 10 13 - - - - - - - - - -
01/09:30pm 16.2 S 9 12 - - - - - - - - - -
01/09:00pm 16.3 S 11 15 - - - - - - - - - -
01/08:30pm 16.2 S 9 11 - - - - - - - - - -
01/08:00pm 16.3 S 9 11 - - - - - - - - - -
01/07:30pm 16.3 SSE 12 16 - - - - - - - - - -
01/07:00pm 16.2 SSE 12 16 - - - - - - - - - -
01/06:30pm 16.3 S 10 14 - - - - - - - - - -
01/06:00pm 16.4 S 13 18 - - - - - - - - - -
01/05:30pm 16.6 S 13 18 - - - - - - - - - -
01/05:00pm 16.9 SSE 13 18 - - - - - - - - - -
01/04:30pm 17.0 S 13 19 - - - - - - - - - -
01/04:00pm 17.0 S 14 19 - - - - - - - - - -
01/03:30pm 16.8 S 16 20 - - - - - - - - - -
01/03:00pm 16.8 S 15 20 - - - - - - - - - -
01/02:30pm 16.6 S 16 21 - - - - - - - - - -
01/02:00pm 16.8 S 17 25 - - - - - - - - - -
01/01:30pm 17.2 SSE 16 20 - - - - - - - - - -
01/01:00pm 17.0 S 17 23 - - - - - - - - - -
01/12:30pm 17.1 S 17 22 - - - - - - - - - -
01/12:00pm 17.0 S 17 23 - - - - - - - - - -
01/11:30am 16.8 S 17 22 - - - - - - - - - -
01/11:00am 16.9 S 18 24 - - - - - - - - - -
01/10:30am 16.7 SSW 15 22 - - - - - - - - - -
01/10:10am 16.6 SW 15 26 - - - - - - - - - -
01/10:00am 16.4 SW 18 26 - - - - - - - - - -
01/09:32am 16.3 WSW 17 27 - - - - - - - - - -
01/09:30am 16.1 SW 19 27 - - - - - - - - - -
01/09:00am 15.9 SW 19 25 - - - - - - - - - -
01/08:43am 16.0 SW 20 30 - - - - - - - - - -
01/08:30am 15.7 WSW 17 24 - - - - - - - - - -
01/08:00am 15.3 SW 23 35 - - - - - - - - - -
01/07:36am 15.3 SW 18 28 - - - - - - - - - -
01/07:30am 15.2 SW 20 26 - - - - - - - - - -
01/07:00am 15.4 WSW 25 34 - - - - - - - - - -
01/06:32am 16.1 WSW 21 31 - - - - - - - - - -
01/06:30am 16.1 WSW 22 31 - - - - - - - - - -
01/06:00am 16.4 WSW 28 35 - - - - - - - - - -
01/05:32am 17.4 SW 27 38 - - - - - - - - - -
01/05:30am 17.5 SW 27 35 - - - - - - - - - -
01/05:11am 18.1 WSW 26 36 - - - - - - - - - -
01/05:00am 18.6 WSW 27 35 - - - - - - - - - -
01/04:34am 18.6 SW 20 31 - - - - - - - - - -
01/04:30am 18.5 SW 20 25 - - - - - - - - - -
01/04:00am 18.8 SSW 26 32 - - - - - - - - - -
01/03:30am 19.8 SW 23 29 - - - - - - - - - -
01/03:00am 20.6 SW 27 34 - - - - - - - - - -
01/02:30am 24.4 SW 19 27 - - - - - - - - - -
01/02:00am 25.2 WSW 15 18 - - - - - - - - - -
01/01:30am 25.7 WNW 13 19 - - - - - - - - - -
01/01:00am 26.2 WNW 14 19 - - - - - - - - - -
01/12:30am 26.4 NW 13 16 - - - - - - - - - -
01/12:00am 26.3 NW 9 14 - - - - - - - - - -
 
Date/Time
EST
Temp

°C
Wind Pressure Rain
since 9am
mm
Weather Cloud Vis
km
Sea
Height
m
Swell
Dir
 
Speed
knots
Gust
knots
hPa Trend Height
m
Period
s
Dir
30/11:30pm 27.1 WNW 14 20 - - - - - - - - - -
30/11:00pm 27.3 WNW 14 21 - - - - - - - - - -
30/10:51pm 27.1 NW 11 18 - - - - - - - - - -
30/10:30pm 22.1 NNE 4 7 - - - - - - - - - -
30/10:00pm 23.6 NNE 5 6 - - - - - - - - - -
30/09:30pm 25.6 NNE 5 6 - - - - - - - - - -
30/09:00pm 26.6 N 5 7 - - - - - - - - - -
30/08:30pm 27.7 N 8 12 - - - - - - - - - -
30/08:00pm 27.7 N 8 9 - - - - - - - - - -
30/07:30pm 29.3 NW 5 7 - - - - - - - - - -
30/07:00pm 30.1 WNW 7 9 - - - - - - - - - -
30/06:30pm 30.3 NNW 6 11 - - - - - - - - - -
30/06:00pm 31.4 NW 7 12 - - - - - - - - - -
30/05:30pm 31.7 NW 9 16 - - - - - - - - - -
30/05:00pm 32.1 NW 7 14 - - - - - - - - - -
30/04:30pm 32.7 WNW 17 25 - - - - - - - - - -
30/04:00pm 32.6 NW 10 17 - - - - - - - - - -
30/03:39pm 32.7 NW 15 28 - - - - - - - - - -
30/03:30pm 32.3 NW 11 23 - - - - - - - - - -
30/03:24pm 31.3 NW 11 16 - - - - - - - - - -
30/03:00pm 23.9 N 9 13 - - - - - - - - - -
30/02:30pm 21.8 N 13 19 - - - - - - - - - -
30/02:00pm 21.8 NNE 19 22 - - - - - - - - - -
30/01:30pm 21.5 NNE 17 20 - - - - - - - - - -
30/01:00pm 21.5 N 17 19 - - - - - - - - - -
30/12:30pm 22.3 N 15 18 - - - - - - - - - -
30/12:00pm 22.7 NNE 12 14 - - - - - - - - - -
30/11:30am 22.7 NNE 12 14 - - - - - - - - - -
30/11:00am 26.3 N 14 19 - - - - - - - - - -
30/10:30am 27.2 N 14 23 - - - - - - - - - -
30/10:00am 25.7 N 11 15 - - - - - - - - - -
30/09:30am 23.9 NNE 7 11 - - - - - - - - - -
30/09:00am 23.0 NNE 5 7 - - - - - - - - - -
30/08:30am 21.7 NNE 2 4 - - - - - - - - - -
30/08:00am 20.9 NNE 4 5 - - - - - - - - - -
30/07:30am 19.0 NNE 1 3 - - - - - - - - - -
30/07:00am 17.9 CALM 0 0 - - - - - - - - - -
30/06:30am 18.3 NNE 3 4 - - - - - - - - - -
30/06:00am 17.4 CALM 0 0 - - - - - - - - - -
30/05:30am 17.4 CALM 0 0 - - - - - - - - - -
30/05:00am 17.3 NNE 1 3 - - - - - - - - - -
30/04:30am 17.3 NNE 2 4 - - - - - - - - - -
30/04:00am 17.2 NNE 2 4 - - - - - - - - - -
30/03:30am 17.3 NNE 3 4 - - - - - - - - - -
30/03:00am 16.9 NNE 2 4 - - - - - - - - - -
30/02:30am 17.1 CALM 0 0 - - - - - - - - - -
30/02:00am 17.4 CALM 0 0 - - - - - - - - - -
30/01:30am 17.5 CALM 0 0 - - - - - - - - - -
30/01:00am 17.4 CALM 0 0 - - - - - - - - - -
30/12:30am 17.7 CALM 0 0 - - - - - - - - - -
30/12:00am 17.8 CALM 0 0 - - - - - - - - - -
 
Date/Time
EST
Temp

°C
Wind Pressure Rain
since 9am
mm
Weather Cloud Vis
km
Sea
Height
m
Swell
Dir
 
Speed
knots
Gust
knots
hPa Trend Height
m
Period
s
Dir
29/11:30pm 18.0 SE 2 4 - - - - - - - - - -
29/11:00pm 18.4 ENE 4 5 - - - - - - - - - -
29/10:30pm 18.5 N 9 11 - - - - - - - - - -
29/10:00pm 18.9 CALM 0 1 - - - - - - - - - -
29/09:30pm 19.3 SW 7 8 - - - - - - - - - -
29/09:00pm 19.6 S 7 10 - - - - - - - - - -
29/08:30pm 20.0 SW 9 12 - - - - - - - - - -
29/08:00pm 20.3 S 11 15 - - - - - - - - - -
29/07:30pm 22.4 S 11 13 - - - - - - - - - -
29/07:00pm 21.7 N 8 10 - - - - - - - - - -
29/06:30pm 21.2 NNE 9 11 - - - - - - - - - -
29/06:00pm 23.0 N 7 10 - - - - - - - - - -
29/05:54pm 24.2 NNW 6 8 - - - - - - - - - -
29/05:30pm 30.0 W 11 16 - - - - - - - - - -
29/05:00pm 30.1 W 11 15 - - - - - - - - - -
29/04:30pm 26.0 NNW 7 11 - - - - - - - - - -
29/04:00pm 31.0 WNW 9 13 - - - - - - - - - -
29/03:30pm 26.3 E 7 9 - - - - - - - - - -
29/03:00pm 25.4 ENE 10 14 - - - - - - - - - -
29/02:30pm 27.0 SE 7 9 - - - - - - - - - -

Other Formats:

Comma delimited format used in spreadsheet applications
http://www.bom.gov.au/fwo/IDN60701/IDN60701.95766.axf

JavaScript Object Notation format (JSON) in row-major order
http://www.bom.gov.au/fwo/IDN60701/IDN60701.95766.json